Ellsworth AFB, South Dakota
Current Conditions -  °F | °C
As of 4:58 PM on Tuesday 25 Nov 2014 (Local Time) from KRCA Reporting Station
Scattered Clouds Scattered Clouds  
Wind Chill: 24°   Ceiling: Unl
Heat Index: 36°   Visibility: 10mi
Dew Point: 27°   Wind: 25mph
Humidity: 68%   Direction: 310°NW
Pressure: 29.83"   Gusts: 31mph
Location:  44.14°N, 103.07°W
Report Text: KRCA 252358Z 31022G27KT 10SM SCT080 02/M03 A2983 RMK AO2A PK WND 32027/55 SLP133 60003 T00231030 10032 20008 51025 $
Loading
Personal Weather Stations






























Interactive Weather Map New forecast layout! Learn more

10-Day Weather Forecast

Advertisements
Track Severe Weather on mobile